Terminal Aerodrome Forecast
Issued by NWS Boise, ID

Home | Current Version | Previous Version | Text Only | Print | Product List | Glossary On
Versions: 1 2 3 4 5 6 7 8 9 10 11 12 13 14 15 16
000
FTUS45 KBOI 191122
TAFBNO
TAF
KBNO 191122Z 1912/2012 23012KT P6SM VCSH OVC050
     FM191600 26015G25KT P6SM -SHRA OVC040
     FM200200 24010KT P6SM BKN050
     FM200800 18006KT P6SM -SHRA OVC050=

USA.gov is the U.S. government's official web portal to all federal, state and local government web resources and services.